createdAt,value
2022-12-20T00:07:45.861Z,41.80
2022-12-20T00:17:59.886Z,42.70
2022-12-20T00:28:12.868Z,43.80
2022-12-20T00:38:25.842Z,37.40
2022-12-20T00:48:38.892Z,39.50
2022-12-20T00:58:51.854Z,38.30
2022-12-20T01:09:10.904Z,36.20
2022-12-20T01:19:25.903Z,36.20
2022-12-20T01:29:38.888Z,38.00
2022-12-20T01:39:51.886Z,36.70
2022-12-20T01:50:05.893Z,40.40
2022-12-20T02:00:19.891Z,40.90
2022-12-20T02:10:43.916Z,42.70
2022-12-20T02:21:14.931Z,38.50
2022-12-20T02:31:38.016Z,41.10
2022-12-20T02:41:55.905Z,39.10
2022-12-20T02:52:09.936Z,38.80
2022-12-20T03:02:23.075Z,39.50
2022-12-20T03:12:35.977Z,36.70
2022-12-20T03:22:48.965Z,39.40
2022-12-20T03:33:07.964Z,39.95
2022-12-20T03:43:21.026Z,41.80
2022-12-20T03:53:33.965Z,43.50
2022-12-20T04:03:47.158Z,42.80
2022-12-20T04:14:02.009Z,45.90
2022-12-20T04:24:14.982Z,47.80
2022-12-20T04:34:28.017Z,45.90
2022-12-20T04:44:40.979Z,43.80
2022-12-20T04:54:54.010Z,45.50
2022-12-20T05:05:06.971Z,45.20
2022-12-20T05:15:20.023Z,46.60
2022-12-20T05:25:50.994Z,42.40
2022-12-20T05:36:04.034Z,44.70
2022-12-20T05:46:17.056Z,45.60
2022-12-20T05:56:30.055Z,47.60
2022-12-20T06:06:43.066Z,45.60
2022-12-20T06:16:56.074Z,46.50
2022-12-20T06:27:10.042Z,46.60
2022-12-20T06:37:23.091Z,49.40
2022-12-20T06:47:36.055Z,49.00
2022-12-20T06:57:49.079Z,51.00
2022-12-20T07:08:02.079Z,51.80
2022-12-20T07:18:15.095Z,49.60
2022-12-20T07:28:28.075Z,52.50
2022-12-20T07:38:42.104Z,65.40
2022-12-20T07:48:55.155Z,60.90
2022-12-20T07:59:09.106Z,63.50
2022-12-20T08:09:28.140Z,58.20
2022-12-20T08:19:41.087Z,53.60
2022-12-20T08:30:01.140Z,51.40
2022-12-20T08:40:15.087Z,52.50
2022-12-20T08:50:28.152Z,54.70
2022-12-20T09:00:41.094Z,56.50
2022-12-20T09:10:54.165Z,50.90
2022-12-20T09:21:11.141Z,50.30
2022-12-20T09:31:33.216Z,49.20
2022-12-20T09:41:48.148Z,49.50
2022-12-20T09:52:14.180Z,51.00
2022-12-20T10:13:16.200Z,51.20
2022-12-20T10:23:35.148Z,48.70
2022-12-20T10:33:55.202Z,57.90
2022-12-20T10:44:11.151Z,55.30
2022-12-20T10:54:36.231Z,65.80
2022-12-20T11:04:49.162Z,52.00
2022-12-20T11:15:34.898Z,50.40
2022-12-20T11:26:00.193Z,49.40
2022-12-20T11:36:25.224Z,51.30
2022-12-20T11:47:04.264Z,50.20
2022-12-20T11:57:42.595Z,53.30
2022-12-20T12:08:13.539Z,54.30
2022-12-20T12:18:50.256Z,55.70
2022-12-20T12:29:13.304Z,53.60
2022-12-20T12:39:38.283Z,49.70
2022-12-20T12:49:52.242Z,48.60
2022-12-20T13:00:05.285Z,51.10
2022-12-20T13:10:18.269Z,53.50
2022-12-20T13:20:39.272Z,64.90
2022-12-20T13:30:53.360Z,65.30
2022-12-20T13:41:08.318Z,52.90
2022-12-20T13:51:26.293Z,58.10
2022-12-20T14:01:39.463Z,54.40
2022-12-20T14:11:55.296Z,61.30
2022-12-20T14:22:08.326Z,57.70
2022-12-20T14:32:27.303Z,58.00
2022-12-20T14:42:45.348Z,59.50
2022-12-20T14:52:58.331Z,61.30
2022-12-20T15:03:22.513Z,60.80
2022-12-20T15:13:39.326Z,67.90
2022-12-20T15:23:56.335Z,53.40
2022-12-20T15:34:19.395Z,55.70
2022-12-20T15:44:34.326Z,55.10
2022-12-20T15:54:47.394Z,56.40
2022-12-20T16:05:02.396Z,59.40
2022-12-20T16:15:27.397Z,61.10
2022-12-20T16:25:41.398Z,63.90
2022-12-20T16:36:00.392Z,62.00
2022-12-20T16:46:13.492Z,66.50
2022-12-20T16:56:26.400Z,65.20
2022-12-20T17:06:39.438Z,61.50
2022-12-20T17:16:52.471Z,63.80
2022-12-20T17:27:05.420Z,60.70
2022-12-20T17:37:18.508Z,60.30
2022-12-20T17:47:31.420Z,66.20
2022-12-20T17:57:44.413Z,65.20
2022-12-20T18:07:59.433Z,61.60
2022-12-20T18:18:12.442Z,60.40
2022-12-20T18:28:25.490Z,63.80
2022-12-20T18:38:39.441Z,56.80
2022-12-20T18:48:53.470Z,59.30
2022-12-20T18:59:11.792Z,57.60
2022-12-20T19:09:25.494Z,55.50
2022-12-20T19:19:38.461Z,58.40
2022-12-20T19:29:51.488Z,58.10
2022-12-20T19:40:04.489Z,56.10
2022-12-20T19:50:17.501Z,56.70
2022-12-20T20:00:30.515Z,60.00
2022-12-20T20:10:43.520Z,60.10
2022-12-20T20:20:56.525Z,58.30
2022-12-20T20:31:17.607Z,60.50
2022-12-20T20:41:30.545Z,59.50
2022-12-20T20:51:43.557Z,57.40
2022-12-20T21:01:56.610Z,55.60
2022-12-20T21:12:09.702Z,57.00
2022-12-20T21:22:22.550Z,58.20
2022-12-20T21:32:35.559Z,61.80
2022-12-20T21:42:48.544Z,56.60
2022-12-20T21:53:01.562Z,54.00
2022-12-20T22:03:14.655Z,57.80
2022-12-20T22:13:27.584Z,52.80
2022-12-20T22:23:47.578Z,55.00
2022-12-20T22:34:08.615Z,56.50
2022-12-20T22:44:21.610Z,56.60
2022-12-20T22:54:34.640Z,60.90
2022-12-20T23:04:47.583Z,52.10
2022-12-20T23:15:35.677Z,54.60
2022-12-20T23:25:50.600Z,67.30
2022-12-20T23:36:07.651Z,56.80
2022-12-20T23:46:23.731Z,56.40
2022-12-20T23:56:36.636Z,55.60
